Time;durP1;ratioP1;P1;durP2;ratioP2;P2;SDS_P1;SDS_P2;PMS_P1;PMS_P2;Temp;Humidity;BMP_temperature;BMP_pressure;BME280_temperature;BME280_humidity;BME280_pressure;Samples;Min_cycle;Max_cycle;Signal;HPM_P1;HPM_P2
2023/04/24 00:00:26;;;;;;;0.35;0.35;;;;;;;10.30;64.76;98939.28;10143651;29;20053;-81
2023/04/24 00:05:29;;;;;;;2.05;0.40;;;;;;;10.05;64.74;98926.69;10163577;29;20503;-80
2023/04/24 00:10:32;;;;;;;1.85;0.30;;;;;;;10.18;64.58;98921.75;10134201;29;20036;-80
2023/04/24 00:15:36;;;;;;;0.30;0.30;;;;;;;10.38;63.94;98933.94;10161281;29;20045;-81
2023/04/24 00:20:39;;;;;;;0.30;0.30;;;;;;;10.18;63.58;98927.13;10149628;29;20048;-81
2023/04/24 00:25:42;;;;;;;0.35;0.35;;;;;;;9.96;63.26;98927.63;10147710;29;20140;-82
2023/04/24 00:30:46;;;;;;;0.82;0.50;;;;;;;10.33;64.21;98920.16;10163438;29;20048;-82
2023/04/24 00:35:49;;;;;;;0.45;0.45;;;;;;;10.27;63.89;98925.34;10160590;29;20044;-80
2023/04/24 00:40:53;;;;;;;2.08;0.70;;;;;;;10.53;65.84;98915.44;10148856;29;20080;-81
2023/04/24 00:45:59;;;;;;;1.05;0.60;;;;;;;10.68;65.36;98910.28;10165414;29;20041;-80
2023/04/24 00:51:02;;;;;;;0.57;0.52;;;;;;;10.59;65.40;98911.25;10164891;29;20053;-82
2023/04/24 00:56:06;;;;;;;1.20;0.40;;;;;;;10.32;64.44;98904.22;10158071;29;20041;-80
2023/04/24 01:01:11;;;;;;;0.65;0.40;;;;;;;9.89;63.88;98893.38;10151316;29;20059;-80
2023/04/24 01:06:15;;;;;;;0.57;0.50;;;;;;;10.22;63.55;98900.81;10160123;29;20100;-81
2023/04/24 01:11:18;;;;;;;0.47;0.40;;;;;;;10.55;64.29;98889.25;10147393;29;20549;-82
2023/04/24 01:16:23;;;;;;;0.57;0.50;;;;;;;10.57;63.84;98889.94;10157282;29;20048;-81
2023/04/24 01:21:28;;;;;;;0.70;0.68;;;;;;;10.63;64.84;98887.59;10157580;29;20040;-79
2023/04/24 01:26:34;;;;;;;1.77;0.77;;;;;;;10.45;65.30;98879.63;10189220;29;20066;-79
2023/04/24 01:31:37;;;;;;;0.80;0.65;;;;;;;10.51;64.64;98881.69;10189250;29;20056;-79
2023/04/24 01:36:42;;;;;;;0.70;0.70;;;;;;;10.66;66.62;98881.91;10162507;29;20416;-79
2023/04/24 01:41:47;;;;;;;0.80;0.70;;;;;;;10.65;68.11;98881.06;10138520;29;20104;-79
2023/04/24 01:46:50;;;;;;;0.77;0.77;;;;;;;10.51;67.87;98876.31;10153977;29;20104;-79
2023/04/24 01:51:53;;;;;;;2.50;0.90;;;;;;;10.32;67.66;98882.75;10151683;29;20477;-79
2023/04/24 01:56:58;;;;;;;0.77;0.70;;;;;;;10.11;67.58;98875.91;10148797;29;20045;-79
2023/04/24 02:02:00;;;;;;;0.88;0.80;;;;;;;9.87;67.93;98881.09;10155195;29;20049;-79
2023/04/24 02:07:03;;;;;;;0.70;0.63;;;;;;;9.50;68.25;98882.97;10149335;29;20472;-79
2023/04/24 02:12:10;;;;;;;0.85;0.75;;;;;;;9.43;67.39;98895.28;10155944;29;20068;-79
2023/04/24 02:17:13;;;;;;;0.80;0.80;;;;;;;9.69;66.69;98898.06;10160384;29;20116;-79
2023/04/24 02:22:16;;;;;;;2.78;0.90;;;;;;;9.30;66.81;98889.50;10144032;29;20096;-79
2023/04/24 02:27:20;;;;;;;1.20;1.10;;;;;;;9.57;65.75;98893.06;10152981;29;20032;-79
2023/04/24 02:32:23;;;;;;;0.90;0.65;;;;;;;9.32;66.08;98911.59;10150165;29;20096;-79
2023/04/24 02:37:26;;;;;;;1.15;0.88;;;;;;;9.77;65.36;98893.75;10159412;29;20596;-79
2023/04/24 02:42:30;;;;;;;1.77;0.90;;;;;;;9.28;66.31;98897.66;10150238;29;20064;-79
2023/04/24 02:47:33;;;;;;;1.02;0.95;;;;;;;9.48;66.01;98889.47;10203878;23;20047;-76
2023/04/24 02:52:36;;;;;;;1.25;1.15;;;;;;;9.66;64.81;98892.16;10177602;29;20055;-75
2023/04/24 02:57:40;;;;;;;0.90;0.90;;;;;;;9.49;65.19;98883.97;10150858;29;20048;-77
2023/04/24 03:02:43;;;;;;;1.42;0.73;;;;;;;9.76;64.74;98879.47;10131251;29;20104;-76
2023/04/24 03:07:46;;;;;;;1.02;0.82;;;;;;;9.52;65.60;98890.88;10130643;29;20076;-76
2023/04/24 03:12:50;;;;;;;0.93;0.82;;;;;;;9.65;65.53;98888.66;10130505;29;20080;-76
2023/04/24 03:17:53;;;;;;;0.65;0.65;;;;;;;9.33;65.57;98904.44;10129947;29;20131;-76
2023/04/24 03:22:58;;;;;;;0.85;0.77;;;;;;;9.59;65.44;98891.09;10130377;29;20051;-75
2023/04/24 03:28:03;;;;;;;0.57;0.50;;;;;;;10.21;63.99;98883.03;10130152;29;20041;-76
2023/04/24 03:33:19;;;;;;;0.95;0.52;;;;;;;10.22;64.07;98876.66;10129841;29;20060;-76
2023/04/24 03:38:39;;;;;;;1.65;0.73;;;;;;;10.01;64.05;98879.69;10129974;29;20073;-75
2023/04/24 03:43:58;;;;;;;0.63;0.63;;;;;;;9.83;64.68;98885.09;10106650;29;20049;-76
2023/04/24 03:49:01;;;;;;;0.80;0.80;;;;;;;10.17;64.37;98882.50;10091195;29;20448;-76
2023/04/24 03:54:08;;;;;;;1.52;0.80;;;;;;;10.14;64.52;98880.97;10095488;29;20044;-77
2023/04/24 03:59:16;;;;;;;1.98;0.80;;;;;;;10.30;64.08;98869.50;10129654;29;20049;-76
2023/04/24 04:04:24;;;;;;;1.25;1.15;;;;;;;9.96;64.57;98882.03;10132589;29;20407;-77
2023/04/24 04:09:27;;;;;;;1.40;1.20;;;;;;;9.89;64.42;98879.13;10136238;29;20044;-75
2023/04/24 04:14:32;;;;;;;1.98;1.42;;;;;;;9.61;64.96;98886.41;10136559;29;20135;-76
2023/04/24 04:19:35;;;;;;;1.52;1.42;;;;;;;9.89;64.00;98881.81;10136044;29;20049;-76
2023/04/24 04:24:40;;;;;;;2.97;1.65;;;;;;;9.56;64.39;98892.22;10135963;29;20041;-77
2023/04/24 04:29:45;;;;;;;2.38;1.90;;;;;;;9.73;63.58;98886.00;10135488;29;20420;-78
2023/04/24 04:34:53;;;;;;;1.80;1.70;;;;;;;9.63;64.28;98879.91;10136508;29;20048;-76
2023/04/24 04:39:58;;;;;;;2.92;1.77;;;;;;;9.75;64.05;98885.84;10135952;29;20052;-75
2023/04/24 04:45:09;;;;;;;2.10;1.92;;;;;;;9.72;64.89;98868.25;10136177;29;20048;-75
2023/04/24 04:50:23;;;;;;;4.40;2.35;;;;;;;9.69;64.55;98886.50;10135320;29;20496;-75
2023/04/24 04:55:31;;;;;;;2.95;2.63;;;;;;;9.28;65.35;98886.97;10135608;29;20100;-79
2023/04/24 05:00:50;;;;;;;3.45;3.15;;;;;;;9.33;65.67;98912.47;10135844;29;20080;-76
2023/04/24 05:06:07;;;;;;;6.07;3.63;;;;;;;8.71;66.60;98925.63;10135296;29;20049;-75
2023/04/24 05:11:13;;;;;;;9.50;6.30;;;;;;;8.36;67.54;98937.84;10134888;29;20048;-75
2023/04/24 05:16:18;;;;;;;9.25;5.70;;;;;;;8.25;67.71;98943.38;10134074;29;20633;-75
2023/04/24 05:21:23;;;;;;;8.35;5.65;;;;;;;8.49;66.51;98949.09;10134658;29;20048;-75
2023/04/24 05:26:27;;;;;;;12.00;7.60;;;;;;;8.73;66.10;98947.75;10134371;29;20040;-78
2023/04/24 05:31:34;;;;;;;10.93;7.57;;;;;;;8.90;65.38;98943.44;10134114;29;20519;-75
2023/04/24 05:36:38;;;;;;;11.32;8.23;;;;;;;9.00;64.90;98946.94;10134005;29;20045;-76
2023/04/24 05:41:41;;;;;;;13.77;8.32;;;;;;;9.21;64.83;98950.16;10135078;29;20063;-75
2023/04/24 05:46:45;;;;;;;6.60;5.57;;;;;;;8.74;65.91;98965.50;10134903;29;20037;-78
2023/04/24 05:51:48;;;;;;;13.07;8.13;;;;;;;8.95;65.36;98955.41;10134727;29;20055;-77
2023/04/24 05:56:54;;;;;;;11.38;8.05;;;;;;;9.48;63.77;98945.75;10133295;29;20075;-76
2023/04/24 06:02:08;;;;;;;13.85;9.10;;;;;;;8.73;66.59;98942.41;10133429;29;20060;-76
2023/04/24 06:07:12;;;;;;;16.13;9.73;;;;;;;8.78;66.66;98948.16;10133030;29;20112;-75
2023/04/24 06:12:17;;;;;;;16.55;11.80;;;;;;;9.21;65.88;98950.16;10132734;29;20063;-75
2023/04/24 06:17:33;;;;;;;15.30;10.55;;;;;;;9.26;65.65;98953.25;10132547;29;20376;-78
2023/04/24 06:22:36;;;;;;;14.88;10.63;;;;;;;9.24;65.45;98965.97;10132141;29;20052;-76
2023/04/24 06:27:40;;;;;;;17.75;11.23;;;;;;;9.37;65.20;98957.53;10132256;29;20131;-76
2023/04/24 06:32:44;;;;;;;11.75;8.73;;;;;;;9.29;64.48;98966.34;10133186;29;20044;-76
2023/04/24 06:37:48;;;;;;;18.38;10.95;;;;;;;9.06;65.49;98962.41;10131579;29;20071;-75
2023/04/24 06:42:51;;;;;;;15.23;9.90;;;;;;;8.70;66.37;98967.63;10117390;29;20048;-77
2023/04/24 06:47:55;;;;;;;12.82;7.57;;;;;;;9.03;65.58;98971.56;10131415;29;20045;-75
2023/04/24 06:52:58;;;;;;;14.32;11.00;;;;;;;9.46;64.65;98969.19;10120747;29;20060;-75
2023/04/24 06:58:01;;;;;;;14.48;10.13;;;;;;;9.43;64.60;98964.13;10093664;29;20049;-75
2023/04/24 07:03:06;;;;;;;16.27;11.13;;;;;;;9.15;64.67;98969.53;10097412;29;20504;-75
2023/04/24 07:08:11;;;;;;;9.02;7.35;;;;;;;8.88;65.20;98973.03;10097216;29;20044;-76
2023/04/24 07:13:14;;;;;;;13.85;10.98;;;;;;;9.64;63.95;98966.53;10096078;29;20586;-75
2023/04/24 07:18:19;;;;;;;17.20;10.80;;;;;;;9.46;63.62;98974.53;10096218;29;20071;-76
2023/04/24 07:23:22;;;;;;;14.57;11.00;;;;;;;9.43;63.33;98969.50;10094497;29;20266;-80
2023/04/24 07:28:26;;;;;;;15.38;9.57;;;;;;;9.26;63.48;98969.31;10090132;29;20174;-74
2023/04/24 07:33:30;;;;;;;14.85;9.98;;;;;;;8.93;63.91;98984.16;10095946;29;20188;-75
2023/04/24 07:38:34;;;;;;;16.77;10.50;;;;;;;9.17;63.18;98986.31;10098088;29;20195;-77
2023/04/24 07:43:36;;;;;;;14.45;9.50;;;;;;;9.38;62.81;98983.38;10104325;29;20044;-74
2023/04/24 07:48:40;;;;;;;18.05;10.27;;;;;;;9.51;62.18;98988.34;10099691;29;21204;-74
2023/04/24 07:53:44;;;;;;;12.65;7.93;;;;;;;9.56;61.61;98993.25;10108326;29;20052;-74
2023/04/24 07:58:47;;;;;;;9.63;7.93;;;;;;;9.24;63.32;98991.88;10097676;29;21225;-75
2023/04/24 08:03:51;;;;;;;11.15;7.85;;;;;;;9.38;62.71;98999.44;10102298;29;20057;-76
2023/04/24 08:08:55;;;;;;;8.52;7.50;;;;;;;9.73;61.79;98993.25;10101303;29;20057;-75
2023/04/24 08:13:58;;;;;;;9.35;6.47;;;;;;;9.56;62.38;99006.66;10089547;29;20056;-75
2023/04/24 08:19:02;;;;;;;8.35;5.82;;;;;;;9.29;62.81;99019.91;10101951;29;20465;-75
2023/04/24 08:24:07;;;;;;;8.95;6.90;;;;;;;9.39;62.62;99013.69;10099379;29;20079;-74
2023/04/24 08:29:10;;;;;;;7.05;4.55;;;;;;;9.35;62.26;99009.59;10101632;29;20096;-75
2023/04/24 08:34:14;;;;;;;4.70;3.67;;;;;;;9.05;62.37;99033.00;10095928;29;20057;-74
2023/04/24 08:39:18;;;;;;;5.38;4.82;;;;;;;9.38;62.76;99028.94;10100996;29;21475;-74
2023/04/24 08:44:21;;;;;;;4.80;4.35;;;;;;;9.50;62.60;99029.56;10101218;29;20048;-76
2023/04/24 08:49:26;;;;;;;3.70;3.40;;;;;;;9.63;61.08;99027.34;10097271;29;20448;-75
2023/04/24 08:54:30;;;;;;;3.42;3.03;;;;;;;10.10;59.88;99016.44;10100384;29;20049;-77
2023/04/24 08:59:33;;;;;;;3.60;3.30;;;;;;;9.61;59.73;99042.75;10100504;29;20136;-75
2023/04/24 09:04:38;;;;;;;4.18;2.45;;;;;;;9.54;60.72;99032.75;10092253;29;20117;-75
2023/04/24 09:09:42;;;;;;;2.22;2.13;;;;;;;9.40;61.54;99016.19;10089259;29;20080;-75
2023/04/24 09:14:46;;;;;;;3.20;2.90;;;;;;;9.96;60.35;99016.16;10099647;29;20413;-75
2023/04/24 09:19:50;;;;;;;2.75;2.55;;;;;;;9.77;61.16;99017.94;10098693;29;20614;-75
2023/04/24 09:25:02;;;;;;;3.22;2.13;;;;;;;9.23;61.58;99033.91;10098831;29;21221;-75
2023/04/24 09:30:07;;;;;;;4.70;3.05;;;;;;;9.72;60.77;99022.91;10092467;29;20060;-74
2023/04/24 09:35:13;;;;;;;1.92;1.83;;;;;;;8.98;61.97;99053.34;10099186;29;20069;-74
2023/04/24 09:40:17;;;;;;;3.40;2.33;;;;;;;9.54;61.46;99043.50;10092062;29;20052;-76
2023/04/24 09:45:21;;;;;;;2.03;1.70;;;;;;;9.11;61.57;99039.63;10101672;29;20052;-75
2023/04/24 09:50:25;;;;;;;2.92;1.77;;;;;;;9.61;60.97;99039.22;10098129;29;20116;-78
2023/04/24 09:55:28;;;;;;;1.70;1.60;;;;;;;9.38;60.95;99036.09;10098635;29;20185;-78
2023/04/24 10:00:33;;;;;;;2.42;1.30;;;;;;;9.56;60.59;99045.03;10096632;29;20063;-76
2023/04/24 10:05:38;;;;;;;1.88;1.77;;;;;;;9.76;61.28;99045.75;10094660;29;20486;-75
2023/04/24 10:10:43;;;;;;;1.52;1.42;;;;;;;9.21;61.47;99056.50;10094220;29;20135;-75
2023/04/24 10:15:47;;;;;;;1.52;1.40;;;;;;;9.49;61.51;99047.47;10098232;29;20067;-74
2023/04/24 10:20:51;;;;;;;2.72;1.55;;;;;;;8.69;66.40;99059.63;10095738;29;20123;-75
2023/04/24 10:25:55;;;;;;;2.60;2.40;;;;;;;8.49;65.75;99066.84;10097443;29;20063;-78
2023/04/24 10:30:59;;;;;;;2.83;0.85;;;;;;;8.69;64.09;99077.53;10093639;29;20173;-75
2023/04/24 10:36:03;;;;;;;1.30;1.20;;;;;;;9.18;63.33;99102.34;10096573;29;20060;-74
2023/04/24 10:41:15;;;;;;;1.08;0.88;;;;;;;8.64;64.24;99096.72;10095608;29;20192;-75
2023/04/24 10:46:21;;;;;;;0.83;0.83;;;;;;;8.82;63.51;99078.91;10097913;29;20120;-75
2023/04/24 10:51:43;;;;;;;2.75;1.45;;;;;;;8.90;64.08;99091.56;10096808;29;20500;-74
2023/04/24 10:56:46;;;;;;;1.88;1.77;;;;;;;8.98;64.76;99099.72;10094240;29;20099;-75
2023/04/24 11:01:54;;;;;;;3.80;3.30;;;;;;;8.23;68.56;99106.69;10091667;29;20060;-79
2023/04/24 11:06:58;;;;;;;4.88;4.47;;;;;;;8.22;68.68;99130.91;10095288;29;20080;-74
2023/04/24 11:12:07;;;;;;;5.93;5.32;;;;;;;8.94;70.57;99130.47;10094822;29;20464;-76
2023/04/24 11:17:29;;;;;;;5.57;4.38;;;;;;;8.12;72.14;99137.09;10079594;29;20218;-75
2023/04/24 11:22:36;;;;;;;6.63;5.13;;;;;;;8.45;73.69;99131.47;10095955;29;20053;-74
2023/04/24 11:27:41;;;;;;;5.65;4.18;;;;;;;7.92;74.37;99152.25;10094837;29;20063;-75
2023/04/24 11:32:44;;;;;;;5.15;4.68;;;;;;;8.03;76.46;99153.97;10095613;29;20053;-77
2023/04/24 11:37:49;;;;;;;4.47;4.07;;;;;;;8.40;73.40;99166.69;10094876;29;21306;-75
2023/04/24 11:42:55;;;;;;;2.50;2.10;;;;;;;8.30;71.99;99163.16;10096043;29;21628;-75
2023/04/24 11:47:59;;;;;;;2.15;1.95;;;;;;;7.67;73.48;99174.13;10094873;29;20056;-75
2023/04/24 11:53:05;;;;;;;2.45;1.60;;;;;;;7.83;75.96;99187.84;10095103;29;20420;-75
2023/04/24 11:58:07;;;;;;;1.30;1.20;;;;;;;7.53;77.14;99223.44;10094644;29;20693;-75
2023/04/24 12:03:11;;;;;;;1.30;1.20;;;;;;;7.41;79.28;99219.19;10092717;29;20053;-76
2023/04/24 12:08:29;;;;;;;0.52;0.50;;;;;;;6.92;81.77;99231.38;10095461;29;21181;-76
2023/04/24 12:13:32;;;;;;;0.60;0.60;;;;;;;7.13;81.65;99239.38;10086656;29;21136;-76
2023/04/24 12:18:35;;;;;;;3.45;0.85;;;;;;;6.87;84.16;99247.75;10088747;29;20045;-76
2023/04/24 12:23:39;;;;;;;3.45;1.20;;;;;;;6.58;89.32;99253.66;10094250;29;20060;-77
2023/04/24 12:28:42;;;;;;;2.45;1.50;;;;;;;6.50;100.00;99263.25;10093987;29;20658;-79
2023/04/24 12:33:45;;;;;;;4.10;2.38;;;;;;;6.69;100.00;99270.59;10135495;29;20432;-80
2023/04/24 12:38:54;;;;;;;3.08;2.58;;;;;;;6.36;100.00;99277.72;10103841;29;20104;-79
2023/04/24 12:43:56;;;;;;;2.85;2.47;;;;;;;6.47;100.00;99287.50;10104660;29;20120;-80
2023/04/24 12:48:59;;;;;;;3.08;2.33;;;;;;;6.14;95.47;99300.81;10104092;29;20044;-80
2023/04/24 12:54:04;;;;;;;8.55;5.25;;;;;;;6.50;96.41;99314.81;10102475;29;20586;-79
2023/04/24 12:59:07;;;;;;;9.65;6.32;;;;;;;6.55;95.88;99309.94;10105867;29;20761;-79
2023/04/24 13:04:09;;;;;;;10.57;6.68;;;;;;;6.80;94.71;99334.63;10102210;29;20055;-79
2023/04/24 13:09:14;;;;;;;7.63;4.72;;;;;;;6.90;94.91;99327.59;10100981;29;20044;-79
2023/04/24 13:14:17;;;;;;;10.98;6.55;;;;;;;6.71;94.99;99333.53;10122382;29;20053;-79
2023/04/24 13:19:20;;;;;;;9.75;6.03;;;;;;;6.81;93.74;99347.00;10106777;29;20057;-78
2023/04/24 13:24:24;;;;;;;10.00;5.93;;;;;;;6.69;94.50;99346.19;10102727;29;20060;-78
2023/04/24 13:29:28;;;;;;;6.45;4.30;;;;;;;6.16;96.50;99359.31;10099945;29;20078;-78
2023/04/24 13:34:31;;;;;;;6.55;3.70;;;;;;;6.28;95.32;99360.16;10103845;29;20139;-78
2023/04/24 13:39:35;;;;;;;8.30;4.25;;;;;;;6.44;93.46;99365.97;10105311;29;20115;-79
2023/04/24 13:44:38;;;;;;;7.30;5.18;;;;;;;7.27;91.18;99365.44;10101816;29;20063;-76
2023/04/24 13:49:41;;;;;;;6.78;4.68;;;;;;;6.98;91.27;99383.88;10100890;29;20542;-76
2023/04/24 13:54:45;;;;;;;6.93;5.03;;;;;;;6.84;91.47;99389.47;10098691;29;20057;-77
2023/04/24 13:59:47;;;;;;;12.85;5.35;;;;;;;6.31;94.08;99389.28;10097571;29;20052;-77
2023/04/24 14:04:50;;;;;;;12.18;8.00;;;;;;;6.21;95.63;99396.31;10095673;29;20060;-77
2023/04/24 14:09:55;;;;;;;13.50;8.73;;;;;;;6.48;94.38;99387.94;10097565;29;20127;-76
2023/04/24 14:14:57;;;;;;;14.75;8.40;;;;;;;6.62;93.13;99391.19;10099183;29;20151;-76
2023/04/24 14:20:00;;;;;;;22.27;8.88;;;;;;;7.00;90.66;99389.94;10095232;29;20192;-78
2023/04/24 14:25:06;;;;;;;15.65;8.68;;;;;;;7.43;91.78;99393.53;10096638;29;20048;-75
2023/04/24 14:30:09;;;;;;;19.65;9.38;;;;;;;7.49;89.26;99385.88;10094909;29;20518;-77
2023/04/24 14:35:12;;;;;;;14.63;7.75;;;;;;;7.81;87.30;99400.16;10095585;29;20127;-74
2023/04/24 14:40:16;;;;;;;16.80;5.40;;;;;;;7.68;84.14;99401.19;10093643;29;20052;-75
2023/04/24 14:45:40;;;;;;;12.00;6.80;;;;;;;7.34;86.28;99396.97;10095455;29;20060;-75
2023/04/24 14:50:43;;;;;;;10.93;6.45;;;;;;;6.78;86.02;99397.97;10085772;29;20056;-75
2023/04/24 14:55:47;;;;;;;12.13;6.40;;;;;;;6.75;84.50;99416.91;10096302;29;20083;-75
2023/04/24 15:00:51;;;;;;;8.82;5.53;;;;;;;6.83;85.04;99417.13;10093024;29;20068;-75
2023/04/24 15:05:54;;;;;;;15.05;6.82;;;;;;;7.11;84.92;99421.09;10095464;29;20053;-75
2023/04/24 15:10:59;;;;;;;18.10;8.80;;;;;;;7.19;84.71;99415.97;10093435;29;20113;-75
2023/04/24 15:16:02;;;;;;;15.80;6.32;;;;;;;7.01;84.63;99437.00;10092104;29;20443;-75
2023/04/24 15:21:05;;;;;;;11.38;6.35;;;;;;;7.36;82.99;99435.13;10092334;29;20139;-74
2023/04/24 15:26:09;;;;;;;6.25;4.32;;;;;;;7.35;82.01;99446.75;10091287;29;20044;-76
2023/04/24 15:31:12;;;;;;;7.70;4.15;;;;;;;6.83;81.20;99442.00;10093878;29;20059;-76
2023/04/24 15:36:15;;;;;;;6.18;4.15;;;;;;;7.30;81.55;99459.66;10092916;29;20056;-76
2023/04/24 15:41:19;;;;;;;8.57;4.10;;;;;;;7.02;82.78;99465.44;10087949;29;20601;-77
2023/04/24 15:46:22;;;;;;;5.85;3.38;;;;;;;7.09;80.71;99463.09;10092934;29;20547;-76
2023/04/24 15:51:25;;;;;;;7.38;4.15;;;;;;;6.84;80.93;99480.22;10093869;29;20076;-77
2023/04/24 15:56:29;;;;;;;5.55;3.72;;;;;;;7.21;79.69;99483.50;10092298;29;20048;-77
2023/04/24 16:01:33;;;;;;;6.70;3.63;;;;;;;7.27;79.53;99484.81;10092025;29;20044;-76
2023/04/24 16:06:36;;;;;;;8.88;3.53;;;;;;;7.24;80.69;99480.56;10101588;29;20068;-77
2023/04/24 16:11:40;;;;;;;4.78;2.75;;;;;;;7.12;80.61;99496.72;10101293;29;20044;-74
2023/04/24 16:16:43;;;;;;;6.47;3.30;;;;;;;6.89;78.62;99495.91;10102302;29;20153;-74
2023/04/24 16:21:46;;;;;;;5.45;2.78;;;;;;;7.49;77.96;99497.25;10099448;29;21236;-74
2023/04/24 16:26:50;;;;;;;5.30;2.58;;;;;;;7.88;77.04;99500.25;10099897;29;20804;-74
2023/04/24 16:31:53;;;;;;;6.97;3.22;;;;;;;7.54;77.04;99510.22;10101302;29;20048;-74
2023/04/24 16:36:56;;;;;;;2.80;2.35;;;;;;;7.44;78.35;99510.16;10100920;29;20548;-73
2023/04/24 16:42:01;;;;;;;5.68;3.25;;;;;;;7.34;79.44;99507.34;10099507;29;20052;-75
2023/04/24 16:47:04;;;;;;;4.80;2.65;;;;;;;6.84;80.95;99515.75;10101322;29;21305;-74
2023/04/24 16:52:07;;;;;;;6.38;3.35;;;;;;;6.99;81.62;99532.44;10100249;29;20055;-75
2023/04/24 16:57:11;;;;;;;6.65;4.28;;;;;;;7.22;82.72;99538.59;10099840;29;20116;-75
2023/04/24 17:02:14;;;;;;;5.75;3.58;;;;;;;6.49;84.70;99531.03;10098983;29;20189;-74
2023/04/24 17:07:17;;;;;;;4.63;3.33;;;;;;;6.49;82.30;99536.38;10098904;29;20056;-76
2023/04/24 17:12:21;;;;;;;4.63;2.45;;;;;;;6.51;80.10;99532.59;10096979;29;20053;-74
2023/04/24 17:17:24;;;;;;;6.45;3.20;;;;;;;8.29;77.72;99544.91;10098197;29;20400;-77
2023/04/24 17:22:27;;;;;;;6.95;3.05;;;;;;;10.42;67.13;99535.78;10099711;29;20060;-77
2023/04/24 17:27:31;;;;;;;4.97;2.78;;;;;;;9.10;69.99;99546.91;10100200;29;20052;-77
2023/04/24 17:32:34;;;;;;;8.20;3.13;;;;;;;7.64;75.17;99545.91;10098708;29;20053;-77
2023/04/24 17:37:37;;;;;;;6.00;3.38;;;;;;;7.34;75.41;99550.09;10099020;29;20041;-77
2023/04/24 17:42:41;;;;;;;5.43;2.63;;;;;;;7.12;75.79;99558.16;10099352;29;20056;-76
2023/04/24 17:47:45;;;;;;;3.17;1.80;;;;;;;6.92;75.46;99551.72;10085266;29;20052;-77
2023/04/24 17:52:48;;;;;;;5.88;2.17;;;;;;;6.80;76.25;99559.72;10092802;29;20059;-76
2023/04/24 17:57:52;;;;;;;5.88;2.40;;;;;;;7.10;75.88;99552.06;10095814;29;20211;-76
2023/04/24 18:02:59;;;;;;;2.72;1.65;;;;;;;7.06;75.37;99552.31;10094341;29;20057;-74
2023/04/24 18:08:03;;;;;;;5.20;2.75;;;;;;;6.96;75.94;99558.50;10097067;29;20048;-77
2023/04/24 18:13:08;;;;;;;5.18;1.52;;;;;;;6.72;76.10;99556.78;10096171;29;20052;-77
2023/04/24 18:18:11;;;;;;;8.10;2.72;;;;;;;7.24;74.60;99562.50;10095163;29;20509;-77
2023/04/24 18:23:14;;;;;;;7.50;2.55;;;;;;;7.06;73.95;99568.34;10093210;29;20393;-75
2023/04/24 18:28:18;;;;;;;3.78;2.20;;;;;;;6.67;74.36;99580.31;10095692;29;20541;-76
2023/04/24 18:33:21;;;;;;;5.03;2.47;;;;;;;6.37;75.43;99576.34;10090069;29;20124;-77
2023/04/24 18:38:24;;;;;;;7.47;2.70;;;;;;;6.50;75.07;99572.72;10105206;29;20522;-76
2023/04/24 18:43:29;;;;;;;6.80;2.92;;;;;;;6.34;75.02;99581.94;10109295;29;20052;-76
2023/04/24 18:48:32;;;;;;;6.40;2.80;;;;;;;6.27;74.38;99583.34;10097600;29;20074;-76
2023/04/24 18:53:34;;;;;;;10.65;3.30;;;;;;;6.58;73.49;99589.88;10095384;29;20056;-76
2023/04/24 18:58:43;;;;;;;5.65;2.78;;;;;;;6.53;73.48;99583.19;10095163;29;20064;-77
2023/04/24 19:03:45;;;;;;;5.18;3.10;;;;;;;6.66;73.10;99594.59;10093414;29;20800;-76
2023/04/24 19:08:49;;;;;;;11.52;3.15;;;;;;;6.53;73.51;99600.06;10091275;29;20052;-74
2023/04/24 19:13:53;;;;;;;11.20;3.58;;;;;;;6.62;73.81;99601.16;10093657;29;20049;-75
2023/04/24 19:18:56;;;;;;;6.78;2.83;;;;;;;6.90;72.53;99609.72;10083112;29;20497;-76
2023/04/24 19:23:59;;;;;;;9.88;3.60;;;;;;;6.79;72.90;99618.53;10078363;29;20092;-74
2023/04/24 19:29:04;;;;;;;11.45;3.83;;;;;;;6.77;72.66;99615.13;10091809;29;20104;-76
2023/04/24 19:34:06;;;;;;;11.43;4.15;;;;;;;6.83;72.50;99620.84;10093340;29;20048;-76
2023/04/24 19:39:09;;;;;;;11.07;3.58;;;;;;;6.68;73.28;99627.38;10103252;29;20059;-75
2023/04/24 19:44:15;;;;;;;9.00;4.78;;;;;;;6.63;73.96;99626.88;10102745;29;20048;-75
2023/04/24 19:49:18;;;;;;;11.38;4.50;;;;;;;6.60;74.49;99624.44;10099709;29;20049;-74
2023/04/24 19:54:21;;;;;;;4.65;3.47;;;;;;;6.56;75.23;99614.97;10100431;29;20052;-75
2023/04/24 19:59:25;;;;;;;11.60;4.63;;;;;;;6.48;75.81;99620.06;10096998;29;20064;-78
2023/04/24 20:04:28;;;;;;;16.58;4.43;;;;;;;6.49;76.68;99619.91;10100916;29;20045;-76
2023/04/24 20:09:32;;;;;;;9.30;4.30;;;;;;;6.48;76.87;99628.06;10101060;29;20056;-76
2023/04/24 20:14:36;;;;;;;11.95;6.55;;;;;;;6.49;77.01;99627.06;10100067;29;20673;-78
2023/04/24 20:19:39;;;;;;;10.20;5.10;;;;;;;6.35;77.27;99626.28;10100497;29;21824;-82
2023/04/24 20:24:43;;;;;;;12.35;5.03;;;;;;;6.67;75.34;99632.84;10099888;29;20060;-79
2023/04/24 20:29:47;;;;;;;10.48;4.45;;;;;;;6.28;74.94;99630.41;10099855;29;20057;-75
2023/04/24 20:34:50;;;;;;;12.75;5.22;;;;;;;5.95;74.99;99644.41;10099736;29;20056;-75
2023/04/24 20:39:53;;;;;;;11.50;4.13;;;;;;;6.14;73.08;99634.13;10165615;23;20046;-75
2023/04/24 20:44:57;;;;;;;12.80;4.97;;;;;;;6.28;71.73;99627.75;10167184;29;20433;-77
2023/04/24 20:50:01;;;;;;;14.38;3.50;;;;;;;6.23;70.54;99626.41;10172604;29;20066;-77
2023/04/24 20:55:05;;;;;;;7.78;4.00;;;;;;;6.31;70.45;99637.34;10163000;29;20047;-77
2023/04/24 21:00:11;;;;;;;14.90;5.72;;;;;;;6.81;70.13;99625.47;10164937;29;20491;-77
2023/04/24 21:05:14;;;;;;;16.88;5.22;;;;;;;6.62;72.84;99627.84;10165609;29;20044;-77
2023/04/24 21:10:18;;;;;;;22.17;6.22;;;;;;;6.31;74.56;99638.19;10171739;29;20044;-75
2023/04/24 21:15:23;;;;;;;7.93;3.88;;;;;;;6.34;74.60;99635.28;10173872;29;20369;-78
2023/04/24 21:20:25;;;;;;;17.02;5.50;;;;;;;5.95;75.79;99633.75;10168153;29;20135;-76
2023/04/24 21:25:28;;;;;;;9.73;4.07;;;;;;;6.26;73.73;99628.81;10163791;29;20083;-77
2023/04/24 21:30:33;;;;;;;11.30;5.00;;;;;;;6.27;73.37;99630.50;10163766;29;20032;-77
2023/04/24 21:35:36;;;;;;;11.20;3.33;;;;;;;6.03;73.49;99634.03;10161756;29;20052;-76
2023/04/24 21:40:39;;;;;;;11.82;4.90;;;;;;;6.22;72.81;99638.84;10152657;29;20092;-77
2023/04/24 21:45:43;;;;;;;9.85;4.30;;;;;;;6.07;73.12;99634.69;10165997;29;20109;-77
2023/04/24 21:50:46;;;;;;;12.18;4.80;;;;;;;5.80;73.72;99618.91;10152780;29;20051;-77
2023/04/24 21:55:49;;;;;;;10.43;4.72;;;;;;;5.89;73.21;99623.53;10159235;29;20052;-77
2023/04/24 22:00:53;;;;;;;12.93;3.85;;;;;;;5.51;74.07;99632.50;10151155;29;20508;-77
2023/04/24 22:05:56;;;;;;;22.05;7.22;;;;;;;6.00;72.83;99625.41;10142876;29;20079;-77
2023/04/24 22:10:59;;;;;;;14.77;5.68;;;;;;;5.65;73.32;99629.72;10155635;29;20132;-78
2023/04/24 22:16:04;;;;;;;14.20;4.53;;;;;;;5.54;73.10;99618.13;10155884;29;20072;-75
2023/04/24 22:21:07;;;;;;;11.30;4.40;;;;;;;5.56;72.80;99632.19;10163569;29;20036;-77
2023/04/24 22:26:10;;;;;;;8.77;3.22;;;;;;;5.70;72.30;99624.91;10154597;29;20071;-77
2023/04/24 22:31:14;;;;;;;10.23;5.93;;;;;;;5.79;72.50;99630.50;10160196;29;20036;-76
2023/04/24 22:36:17;;;;;;;16.85;5.70;;;;;;;5.66;73.16;99628.75;10166283;29;20044;-76
2023/04/24 22:41:21;;;;;;;20.38;5.63;;;;;;;5.84;72.62;99631.91;10161243;29;20401;-77
2023/04/24 22:46:25;;;;;;;13.55;6.15;;;;;;;5.46;73.57;99629.34;10171335;29;20087;-77
2023/04/24 22:51:32;;;;;;;13.82;5.18;;;;;;;5.55;72.99;99633.16;10166033;29;20104;-79
2023/04/24 22:56:36;;;;;;;21.63;6.03;;;;;;;5.30;73.62;99634.06;10168725;29;20056;-77
2023/04/24 23:01:40;;;;;;;12.07;6.05;;;;;;;5.59;72.66;99630.13;10164491;29;20044;-75
2023/04/24 23:06:43;;;;;;;14.30;6.72;;;;;;;5.54;72.78;99634.97;10173492;29;20060;-77
2023/04/24 23:11:46;;;;;;;17.83;5.07;;;;;;;5.60;72.87;99636.34;10155510;29;20044;-76
2023/04/24 23:16:50;;;;;;;10.15;4.45;;;;;;;5.48;73.31;99630.06;10168664;29;20059;-76
2023/04/24 23:21:53;;;;;;;15.30;5.35;;;;;;;5.29;73.52;99627.88;10154422;29;20464;-76
2023/04/24 23:26:56;;;;;;;16.00;5.40;;;;;;;5.52;73.27;99628.91;10146426;29;20124;-77
2023/04/24 23:32:02;;;;;;;11.65;4.60;;;;;;;5.49;72.88;99635.28;10148467;29;20036;-79
2023/04/24 23:37:05;;;;;;;16.20;5.97;;;;;;;5.42;73.52;99630.50;10145701;29;20119;-77
2023/04/24 23:42:08;;;;;;;17.30;7.25;;;;;;;5.43;73.62;99633.09;10148675;29;20036;-77